createdAt,value
2018-11-03T00:01:54.864Z,31.60
2018-11-03T00:04:23.927Z,34.23
2018-11-03T00:06:52.717Z,30.43
2018-11-03T00:09:21.425Z,29.80
2018-11-03T00:11:50.815Z,31.07
2018-11-03T00:14:19.534Z,32.67
2018-11-03T00:16:48.363Z,34.13
2018-11-03T00:19:18.031Z,33.07
2018-11-03T00:21:46.881Z,38.47
2018-11-03T00:24:15.742Z,31.00
2018-11-03T00:26:44.532Z,30.27
2018-11-03T00:29:13.333Z,28.87
2018-11-03T00:31:42.101Z,28.47
2018-11-03T00:34:10.843Z,28.97
2018-11-03T00:36:39.639Z,32.87
2018-11-03T00:39:10.372Z,29.70
2018-11-03T00:41:39.053Z,28.00
2018-11-03T00:44:08.836Z,29.70
2018-11-03T00:46:37.661Z,32.17
2018-11-03T00:49:06.445Z,30.00
2018-11-03T00:51:35.274Z,29.70
2018-11-03T00:54:04.417Z,34.20
2018-11-03T00:56:33.109Z,24.77
2018-11-03T00:59:01.802Z,27.83
2018-11-03T01:01:30.581Z,30.00
2018-11-03T01:03:59.371Z,26.77
2018-11-03T01:06:28.131Z,26.60
2018-11-03T01:08:56.956Z,25.53
2018-11-03T01:11:25.749Z,26.03
2018-11-03T01:13:54.407Z,28.67
2018-11-03T01:16:23.201Z,29.90
2018-11-03T01:18:51.999Z,28.23
2018-11-03T01:21:20.788Z,34.17
2018-11-03T01:23:49.556Z,25.53
2018-11-03T01:26:18.299Z,25.67
2018-11-03T01:28:47.152Z,25.73
2018-11-03T01:31:15.993Z,30.90
2018-11-03T01:33:44.769Z,23.77
2018-11-03T01:36:13.524Z,28.43
2018-11-03T01:38:42.305Z,29.33
2018-11-03T01:41:10.996Z,26.33
2018-11-03T01:43:39.788Z,26.83
2018-11-03T01:46:08.484Z,27.67
2018-11-03T01:48:37.210Z,23.33
2018-11-03T01:51:05.946Z,26.70
2018-11-03T01:53:34.668Z,27.37
2018-11-03T01:56:03.929Z,25.97
2018-11-03T01:58:32.692Z,33.40
2018-11-03T02:01:01.444Z,31.10
2018-11-03T02:03:30.236Z,30.33
2018-11-03T02:05:59.081Z,26.60
2018-11-03T02:08:27.740Z,24.97
2018-11-03T02:10:56.462Z,24.83
2018-11-03T02:13:25.365Z,29.70
2018-11-03T02:15:54.040Z,25.73
2018-11-03T02:18:22.803Z,26.83
2018-11-03T02:20:51.545Z,31.10
2018-11-03T02:23:20.290Z,30.13
2018-11-03T02:25:48.964Z,24.90
2018-11-03T02:48:25.930Z,26.17
2018-11-03T02:50:54.669Z,26.13
2018-11-03T02:53:23.524Z,26.57
2018-11-03T02:55:52.157Z,26.00
2018-11-03T02:58:20.868Z,25.07
2018-11-03T03:00:49.532Z,24.27
2018-11-03T03:03:18.929Z,26.10
2018-11-03T03:05:47.617Z,26.57
2018-11-03T03:08:16.348Z,28.47
2018-11-03T03:10:45.041Z,26.90
2018-11-03T03:13:13.704Z,27.60
2018-11-03T03:15:42.495Z,25.43
2018-11-03T03:18:11.311Z,24.93
2018-11-03T03:20:41.073Z,30.90
2018-11-03T03:23:09.843Z,32.33
2018-11-03T03:25:38.612Z,29.30
2018-11-03T03:28:07.502Z,26.47
2018-11-03T03:30:36.178Z,25.63
2018-11-03T03:33:05.091Z,27.50
2018-11-03T03:35:33.791Z,27.63
2018-11-03T03:38:02.450Z,27.00
2018-11-03T03:40:31.162Z,29.30
2018-11-03T03:42:59.900Z,29.40
2018-11-03T03:45:28.749Z,32.20
2018-11-03T03:47:57.517Z,26.57
2018-11-03T03:50:26.194Z,30.37
2018-11-03T03:52:54.909Z,21.37
2018-11-03T03:55:23.906Z,28.77
2018-11-03T03:57:52.891Z,26.57
2018-11-03T04:00:21.625Z,24.90
2018-11-03T04:02:50.466Z,25.87
2018-11-03T04:05:19.319Z,27.20
2018-11-03T04:07:48.046Z,24.40
2018-11-03T04:30:25.217Z,25.83
2018-11-03T04:32:54.027Z,24.00
2018-11-03T04:35:22.711Z,26.23
2018-11-03T04:37:51.457Z,26.53
2018-11-03T04:40:20.096Z,25.73
2018-11-03T04:42:48.872Z,26.63
2018-11-03T04:45:17.692Z,23.40
2018-11-03T04:47:46.389Z,23.90
2018-11-03T04:50:15.057Z,24.23
2018-11-03T04:52:43.863Z,23.83
2018-11-03T04:55:12.653Z,27.00
2018-11-03T04:57:41.321Z,25.80
2018-11-03T05:00:10.559Z,25.40
2018-11-03T05:02:39.345Z,22.73
2018-11-03T05:05:08.221Z,23.30
2018-11-03T05:07:36.976Z,27.57
2018-11-03T05:10:06.967Z,26.03
2018-11-03T05:12:35.766Z,26.33
2018-11-03T05:15:04.828Z,22.43
2018-11-03T05:17:33.646Z,28.70
2018-11-03T05:20:02.440Z,22.40
2018-11-03T05:22:31.271Z,25.33
2018-11-03T05:25:00.074Z,26.30
2018-11-03T05:27:28.980Z,23.27
2018-11-03T05:29:57.748Z,23.83
2018-11-03T05:32:26.748Z,29.13
2018-11-03T05:34:55.537Z,25.13
2018-11-03T05:37:24.323Z,25.57
2018-11-03T05:39:53.053Z,23.67
2018-11-03T05:42:21.905Z,25.00
2018-11-03T05:44:50.688Z,22.47
2018-11-03T05:47:19.799Z,24.10
2018-11-03T05:49:48.553Z,26.93
2018-11-03T05:52:17.334Z,24.37
2018-11-03T05:54:46.049Z,23.20
2018-11-03T05:57:14.798Z,24.60
2018-11-03T05:59:43.583Z,24.30
2018-11-03T06:02:12.339Z,24.07
2018-11-03T06:04:41.087Z,25.13
2018-11-03T06:07:09.961Z,25.63
2018-11-03T06:09:38.772Z,23.17
2018-11-03T06:12:07.768Z,27.80
2018-11-03T06:14:36.668Z,24.60
2018-11-03T06:17:05.661Z,26.13
2018-11-03T06:19:34.509Z,22.20
2018-11-03T06:22:03.363Z,26.23
2018-11-03T06:24:32.172Z,23.77
2018-11-03T06:27:01.910Z,23.07
2018-11-03T06:29:30.706Z,27.00
2018-11-03T06:31:59.589Z,23.93
2018-11-03T06:34:28.264Z,23.53
2018-11-03T06:36:57.076Z,25.83
2018-11-03T06:39:25.834Z,22.90
2018-11-03T06:41:54.617Z,22.87
2018-11-03T06:44:23.514Z,21.63
2018-11-03T06:46:52.345Z,23.70
2018-11-03T06:49:22.219Z,23.20
2018-11-03T06:51:52.245Z,24.27
2018-11-03T06:54:21.459Z,22.80
2018-11-03T06:56:50.392Z,21.10
2018-11-03T06:59:19.413Z,23.10
2018-11-03T07:01:48.204Z,23.70
2018-11-03T07:04:17.119Z,21.17
2018-11-03T07:06:45.899Z,26.27
2018-11-03T07:09:15.156Z,22.13
2018-11-03T07:11:44.025Z,24.13
2018-11-03T07:14:12.811Z,24.77
2018-11-03T07:16:41.615Z,25.23
2018-11-03T07:19:10.597Z,21.63
2018-11-03T07:21:39.571Z,24.10
2018-11-03T07:24:08.449Z,22.33
2018-11-03T07:26:37.358Z,24.83
2018-11-03T07:29:06.211Z,25.40
2018-11-03T07:31:35.212Z,24.17
2018-11-03T07:34:04.080Z,24.33
2018-11-03T07:36:33.372Z,21.60
2018-11-03T07:39:02.329Z,23.40
2018-11-03T07:41:31.242Z,26.10
2018-11-03T07:44:00.164Z,21.90
2018-11-03T07:46:28.953Z,27.47
2018-11-03T07:48:58.000Z,23.30
2018-11-03T07:51:26.715Z,20.53
2018-11-03T07:53:55.590Z,26.83
2018-11-03T07:56:24.416Z,26.20
2018-11-03T07:58:53.254Z,24.50
2018-11-03T08:01:22.240Z,28.77
2018-11-03T08:03:51.181Z,26.73
2018-11-03T08:06:19.983Z,23.67
2018-11-03T08:08:49.038Z,28.33
2018-11-03T08:11:18.264Z,22.17
2018-11-03T08:13:47.060Z,23.13
2018-11-03T08:16:15.853Z,27.03
2018-11-03T08:18:44.755Z,24.57
2018-11-03T08:21:13.564Z,22.33
2018-11-03T08:23:42.420Z,26.80
2018-11-03T08:26:15.016Z,25.87
2018-11-03T08:28:43.894Z,23.57
2018-11-03T08:31:12.915Z,24.13
2018-11-03T08:33:41.776Z,24.00
2018-11-03T08:36:10.961Z,23.50
2018-11-03T08:38:40.008Z,26.37
2018-11-03T08:41:09.246Z,24.23
2018-11-03T08:43:38.969Z,27.10
2018-11-03T08:46:10.037Z,27.33
2018-11-03T08:48:39.489Z,24.47
2018-11-03T08:51:08.439Z,27.10
2018-11-03T08:53:37.357Z,27.90
2018-11-03T08:56:06.841Z,24.23
2018-11-03T08:58:35.704Z,29.07
2018-11-03T09:01:04.798Z,22.70
2018-11-03T09:03:33.693Z,23.57
2018-11-03T09:06:02.569Z,23.53
2018-11-03T09:08:31.401Z,24.47
2018-11-03T09:11:00.256Z,24.60
2018-11-03T09:13:29.338Z,25.23
2018-11-03T09:15:58.372Z,22.27
2018-11-03T09:18:27.242Z,23.27
2018-11-03T09:20:56.274Z,21.00
2018-11-03T09:23:25.538Z,21.97
2018-11-03T09:25:54.418Z,25.33
2018-11-03T09:28:23.335Z,24.50
2018-11-03T09:30:52.253Z,22.33
2018-11-03T09:33:21.146Z,22.83
2018-11-03T09:35:50.203Z,25.53
2018-11-03T09:38:19.527Z,21.80
2018-11-03T09:40:48.458Z,24.63
2018-11-03T09:43:17.426Z,22.23
2018-11-03T09:45:46.335Z,25.60
2018-11-03T09:48:15.479Z,23.67
2018-11-03T09:56:42.379Z,25.50
2018-11-03T09:59:11.317Z,23.10
2018-11-03T10:01:42.115Z,27.00
2018-11-03T10:04:10.909Z,26.43
2018-11-03T10:06:39.685Z,25.13
2018-11-03T10:09:08.546Z,26.13
2018-11-03T10:11:37.277Z,27.87
2018-11-03T10:14:06.056Z,26.73
2018-11-03T10:16:34.740Z,26.33
2018-11-03T10:19:03.590Z,24.50
2018-11-03T10:21:32.285Z,26.13
2018-11-03T10:24:01.130Z,28.40
2018-11-03T10:26:29.860Z,28.93
2018-11-03T10:28:58.732Z,26.70
2018-11-03T10:31:27.485Z,29.10
2018-11-03T10:33:56.216Z,30.53
2018-11-03T10:36:24.933Z,28.27
2018-11-03T10:38:53.685Z,26.50
2018-11-03T10:41:22.394Z,32.70
2018-11-03T10:43:51.098Z,33.83
2018-11-03T10:46:19.870Z,29.10
2018-11-03T10:48:48.461Z,28.03
2018-11-03T10:51:17.225Z,31.17
2018-11-03T10:53:46.082Z,29.57
2018-11-03T10:56:14.895Z,27.37
2018-11-03T10:58:43.555Z,33.60
2018-11-03T11:01:17.581Z,32.43
2018-11-03T11:03:51.461Z,36.10
2018-11-03T11:06:25.268Z,35.80
2018-11-03T11:08:59.109Z,34.73
2018-11-03T11:11:33.016Z,36.47
2018-11-03T11:14:01.777Z,29.83
2018-11-03T11:16:30.598Z,30.80
2018-11-03T11:18:59.202Z,35.73
2018-11-03T11:21:27.926Z,35.07
2018-11-03T11:23:56.674Z,35.47
2018-11-03T11:26:25.424Z,33.90
2018-11-03T11:28:54.188Z,35.10
2018-11-03T11:31:23.089Z,36.07
2018-11-03T11:33:51.831Z,38.07
2018-11-03T11:36:20.556Z,38.10
2018-11-03T11:38:49.280Z,37.50
2018-11-03T11:41:18.116Z,37.93
2018-11-03T11:43:46.824Z,39.37
2018-11-03T11:46:15.694Z,37.07
2018-11-03T11:48:45.407Z,41.20
2018-11-03T11:51:14.157Z,38.80
2018-11-03T11:53:42.953Z,43.33
2018-11-03T11:56:11.685Z,42.40
2018-11-03T11:58:40.478Z,39.10
2018-11-03T12:01:09.326Z,42.97
2018-11-03T12:03:38.204Z,40.90
2018-11-03T12:06:07.205Z,41.07
2018-11-03T12:08:36.041Z,44.27
2018-11-03T12:11:04.993Z,47.00
2018-11-03T12:13:33.756Z,43.63
2018-11-03T12:16:02.665Z,39.93
2018-11-03T12:18:31.545Z,47.13
2018-11-03T12:21:00.347Z,41.90
2018-11-03T12:23:29.066Z,41.20
2018-11-03T12:25:57.861Z,44.50
2018-11-03T12:28:26.622Z,38.90
2018-11-03T12:30:55.363Z,39.30
2018-11-03T12:33:24.099Z,41.60
2018-11-03T12:35:52.835Z,44.60
2018-11-03T12:38:21.713Z,39.93
2018-11-03T12:40:50.613Z,40.73
2018-11-03T12:43:19.268Z,39.37
2018-11-03T12:45:48.005Z,37.70
2018-11-03T12:48:16.927Z,35.40
2018-11-03T12:50:45.568Z,35.37
2018-11-03T12:53:14.433Z,36.60
2018-11-03T12:55:43.268Z,42.13
2018-11-03T12:58:12.135Z,42.23
2018-11-03T13:00:40.897Z,36.53
2018-11-03T13:03:12.963Z,39.10
2018-11-03T13:05:41.745Z,39.40
2018-11-03T13:08:10.401Z,41.30
2018-11-03T13:10:39.144Z,47.73
2018-11-03T13:13:08.215Z,37.70
2018-11-03T13:15:37.019Z,39.83
2018-11-03T13:18:06.065Z,39.40
2018-11-03T13:20:34.862Z,39.60
2018-11-03T13:23:03.696Z,40.80
2018-11-03T13:25:32.458Z,45.10
2018-11-03T13:28:01.207Z,46.67
2018-11-03T13:30:29.920Z,44.37
2018-11-03T13:32:58.617Z,44.90
2018-11-03T13:35:27.311Z,50.17
2018-11-03T13:37:55.984Z,49.70
2018-11-03T13:40:24.703Z,42.37
2018-11-03T13:42:53.468Z,42.10
2018-11-03T13:45:22.113Z,43.23
2018-11-03T13:47:51.423Z,43.43
2018-11-03T13:50:20.183Z,45.87
2018-11-03T13:52:49.255Z,42.33
2018-11-03T13:55:18.105Z,46.60
2018-11-03T13:57:47.186Z,46.47
2018-11-03T14:00:17.289Z,51.47
2018-11-03T14:02:46.795Z,45.77
2018-11-03T14:05:15.611Z,49.97
2018-11-03T14:07:44.436Z,47.70
2018-11-03T14:10:15.345Z,48.10
2018-11-03T14:12:44.997Z,44.60
2018-11-03T14:15:15.471Z,48.90
2018-11-03T14:17:44.439Z,41.90
2018-11-03T14:20:14.457Z,41.93
2018-11-03T14:22:44.029Z,42.27
2018-11-03T14:25:14.880Z,40.73
2018-11-03T14:27:44.773Z,42.20
2018-11-03T14:30:14.163Z,42.60
2018-11-03T14:32:43.035Z,46.53
2018-11-03T14:35:12.771Z,43.67
2018-11-03T14:37:41.824Z,43.03
2018-11-03T14:40:13.449Z,41.33
2018-11-03T14:42:42.868Z,46.37
2018-11-03T14:45:12.593Z,44.30
2018-11-03T14:47:42.200Z,43.50
2018-11-03T14:50:11.076Z,40.03
2018-11-03T14:52:40.913Z,41.17
2018-11-03T14:55:10.513Z,49.53
2018-11-03T14:57:39.283Z,46.73
2018-11-03T15:00:11.064Z,43.67
2018-11-03T15:02:39.957Z,44.10
2018-11-03T15:05:09.519Z,45.10
2018-11-03T15:07:38.622Z,43.97
2018-11-03T15:10:09.049Z,49.37
2018-11-03T15:12:37.815Z,46.73
2018-11-03T15:15:08.019Z,47.83
2018-11-03T15:17:36.725Z,49.00
2018-11-03T15:20:06.601Z,44.27
2018-11-03T15:22:35.523Z,45.33
2018-11-03T15:25:04.245Z,43.80
2018-11-03T15:27:33.056Z,46.20
2018-11-03T15:30:01.947Z,45.10
2018-11-03T15:32:30.762Z,42.80
2018-11-03T15:35:00.046Z,43.67
2018-11-03T15:37:28.910Z,39.47
2018-11-03T15:39:57.598Z,42.17
2018-11-03T15:42:26.321Z,42.23
2018-11-03T15:44:55.052Z,43.93
2018-11-03T15:47:23.786Z,45.70
2018-11-03T15:49:52.528Z,46.87
2018-11-03T15:52:21.382Z,48.17
2018-11-03T15:54:50.121Z,49.50
2018-11-03T15:57:19.086Z,47.90
2018-11-03T15:59:47.891Z,53.43
2018-11-03T16:02:16.766Z,49.00
2018-11-03T16:04:45.483Z,48.73
2018-11-03T16:07:14.270Z,52.30
2018-11-03T16:09:43.247Z,57.63
2018-11-03T16:12:12.195Z,56.30
2018-11-03T16:14:40.868Z,65.93
2018-11-03T16:17:09.656Z,60.37
2018-11-03T16:19:38.447Z,60.70
2018-11-03T16:22:07.189Z,59.67
2018-11-03T16:24:35.942Z,59.50
2018-11-03T16:27:04.740Z,62.73
2018-11-03T16:29:33.533Z,64.17
2018-11-03T16:32:02.374Z,66.13
2018-11-03T16:34:31.116Z,69.97
2018-11-03T16:36:59.928Z,64.20
2018-11-03T16:39:28.625Z,71.90
2018-11-03T16:41:57.352Z,64.53
2018-11-03T16:44:26.136Z,78.80
2018-11-03T16:46:54.850Z,70.57
2018-11-03T16:49:23.550Z,70.00
2018-11-03T16:51:52.265Z,73.53
2018-11-03T16:54:21.007Z,73.30
2018-11-03T16:56:49.836Z,72.20
2018-11-03T16:59:18.644Z,68.20
2018-11-03T17:01:47.706Z,73.53
2018-11-03T17:04:16.395Z,66.97
2018-11-03T17:06:45.219Z,70.10
2018-11-03T17:09:13.921Z,68.07
2018-11-03T17:11:42.551Z,63.53
2018-11-03T17:14:11.269Z,73.20
2018-11-03T17:16:40.037Z,73.80
2018-11-03T17:19:08.729Z,64.50
2018-11-03T17:21:37.464Z,70.53
2018-11-03T17:24:06.245Z,72.97
2018-11-03T17:26:34.983Z,75.03
2018-11-03T17:29:03.769Z,71.63
2018-11-03T17:31:32.564Z,76.10
2018-11-03T17:34:01.320Z,75.37
2018-11-03T17:36:30.103Z,70.47
2018-11-03T17:38:58.801Z,70.97
2018-11-03T17:41:34.000Z,69.40
2018-11-03T17:44:02.962Z,78.00
2018-11-03T17:46:31.645Z,79.47
2018-11-03T17:49:00.391Z,71.73
2018-11-03T17:51:30.237Z,66.27
2018-11-03T17:53:58.927Z,59.47
2018-11-03T17:56:27.621Z,80.53
2018-11-03T17:58:56.393Z,72.43
2018-11-03T18:01:25.255Z,78.73
2018-11-03T18:03:54.007Z,84.50
2018-11-03T18:06:22.729Z,83.57
2018-11-03T18:08:51.517Z,78.60
2018-11-03T18:11:20.240Z,81.10
2018-11-03T18:13:48.929Z,81.23
2018-11-03T18:16:17.653Z,81.37
2018-11-03T18:18:46.394Z,81.70
2018-11-03T18:21:15.189Z,81.17
2018-11-03T18:23:44.078Z,88.23
2018-11-03T18:26:12.857Z,80.77
2018-11-03T18:28:41.580Z,77.07
2018-11-03T18:31:10.456Z,69.40
2018-11-03T18:33:39.322Z,75.23
2018-11-03T18:36:08.118Z,72.97
2018-11-03T18:38:36.886Z,70.77
2018-11-03T18:41:05.825Z,71.70
2018-11-03T18:43:34.742Z,70.23
2018-11-03T18:46:03.833Z,71.53
2018-11-03T18:48:32.550Z,62.90
2018-11-03T18:51:01.246Z,70.97
2018-11-03T18:53:30.451Z,70.53
2018-11-03T18:56:05.984Z,72.33
2018-11-03T18:58:34.680Z,65.03
2018-11-03T19:01:03.683Z,69.80
2018-11-03T19:03:32.402Z,59.77
2018-11-03T19:06:01.166Z,65.37
2018-11-03T19:08:29.946Z,68.30
2018-11-03T19:10:58.613Z,63.87
2018-11-03T19:13:27.353Z,59.63
2018-11-03T19:15:56.068Z,63.27
2018-11-03T19:18:24.884Z,59.07
2018-11-03T19:20:53.601Z,65.77
2018-11-03T19:23:22.832Z,62.00
2018-11-03T19:25:51.616Z,65.80
2018-11-03T19:28:20.300Z,66.60
2018-11-03T19:30:48.981Z,56.53
2018-11-03T19:33:17.757Z,56.60
2018-11-03T19:35:46.511Z,59.53
2018-11-03T19:38:16.278Z,53.27
2018-11-03T19:40:45.006Z,64.93
2018-11-03T19:43:13.700Z,57.40
2018-11-03T19:45:42.418Z,59.60
2018-11-03T19:48:11.431Z,59.13
2018-11-03T19:50:40.112Z,56.77
2018-11-03T19:53:08.822Z,57.73
2018-11-03T19:55:38.019Z,59.20
2018-11-03T19:58:07.009Z,62.63
2018-11-03T20:00:35.780Z,57.53
2018-11-03T20:03:04.578Z,57.60
2018-11-03T20:05:33.233Z,59.60
2018-11-03T20:08:02.419Z,56.23
2018-11-03T20:30:39.825Z,66.73
2018-11-03T20:33:09.106Z,63.47
2018-11-03T20:35:38.079Z,59.10
2018-11-03T20:38:07.123Z,61.30
2018-11-03T20:40:36.081Z,58.33
2018-11-03T20:43:05.157Z,56.80
2018-11-03T20:45:35.308Z,54.47
2018-11-03T20:48:04.671Z,55.23
2018-11-03T20:50:33.680Z,55.67
2018-11-03T20:53:02.764Z,55.50
2018-11-03T20:55:31.922Z,52.97
2018-11-03T20:58:01.224Z,52.20
2018-11-03T21:00:30.508Z,52.17
2018-11-03T21:02:59.435Z,48.97
2018-11-03T21:05:28.350Z,48.77
2018-11-03T21:07:57.776Z,50.00
2018-11-03T21:10:26.773Z,52.40
2018-11-03T21:12:55.769Z,53.27
2018-11-03T21:15:24.725Z,64.43
2018-11-03T21:17:53.813Z,64.37
2018-11-03T21:20:22.954Z,57.90
2018-11-03T21:22:51.947Z,59.67
2018-11-03T21:25:20.927Z,60.20
2018-11-03T21:27:49.784Z,57.17
2018-11-03T21:30:18.881Z,60.33
2018-11-03T21:32:47.845Z,57.87
2018-11-03T21:35:16.799Z,54.73
2018-11-03T21:37:45.786Z,55.00
2018-11-03T21:40:14.679Z,49.87
2018-11-03T21:42:43.761Z,53.00
2018-11-03T21:45:12.829Z,49.67
2018-11-03T21:47:41.893Z,58.23
2018-11-03T21:50:11.697Z,52.83
2018-11-03T21:52:40.926Z,53.43
2018-11-03T21:55:17.651Z,54.57
2018-11-03T21:57:46.562Z,58.37
2018-11-03T22:00:16.012Z,56.70
2018-11-03T22:02:44.949Z,61.23
2018-11-03T22:05:14.731Z,63.07
2018-11-03T22:07:44.143Z,72.23
2018-11-03T22:10:13.380Z,64.50
2018-11-03T22:12:43.266Z,63.70
2018-11-03T22:15:13.151Z,64.87
2018-11-03T22:17:42.015Z,63.83
2018-11-03T22:20:11.780Z,62.40
2018-11-03T22:22:40.799Z,59.53
2018-11-03T22:25:11.120Z,64.87
2018-11-03T22:27:40.062Z,66.27
2018-11-03T22:30:10.798Z,66.37
2018-11-03T22:32:39.875Z,61.60
2018-11-03T22:35:09.346Z,63.87
2018-11-03T22:37:38.972Z,63.77
2018-11-03T22:40:08.706Z,65.97
2018-11-03T22:42:37.950Z,56.90
2018-11-03T22:45:07.089Z,61.97
2018-11-03T22:47:36.309Z,57.43
2018-11-03T22:50:05.390Z,60.20
2018-11-03T22:52:34.437Z,60.90
2018-11-03T22:55:03.879Z,66.03
2018-11-03T22:57:32.921Z,62.67
2018-11-03T23:00:02.381Z,64.97
2018-11-03T23:02:31.378Z,65.80
2018-11-03T23:05:00.296Z,61.50
2018-11-03T23:07:29.416Z,64.67
2018-11-03T23:09:58.385Z,56.27
2018-11-03T23:12:27.679Z,50.13
2018-11-03T23:14:56.611Z,50.53
2018-11-03T23:17:25.702Z,53.37
2018-11-03T23:19:54.619Z,53.53
2018-11-03T23:22:24.498Z,52.17
2018-11-03T23:24:53.452Z,56.87
2018-11-03T23:27:22.791Z,57.53
2018-11-03T23:29:51.875Z,53.50
2018-11-03T23:32:21.814Z,49.80
2018-11-03T23:34:50.986Z,52.40
2018-11-03T23:37:20.002Z,51.60
2018-11-03T23:39:48.759Z,56.33
2018-11-03T23:42:17.707Z,52.30
2018-11-03T23:44:46.649Z,48.87
2018-11-03T23:47:15.602Z,53.20
2018-11-03T23:49:44.436Z,50.43
2018-11-03T23:52:13.443Z,47.70
2018-11-03T23:54:42.636Z,50.67
2018-11-03T23:57:11.806Z,48.10
2018-11-03T23:59:40.880Z,52.43
